sensor_id;sensor_type;location;lat;lon;timestamp;pressure;altitude;pressure_sealevel;temperature;humidity
78573;BME280;67862;0.000;0.000;2023-10-08T00:01:35;99203.09;;;22.37;63.33
78573;BME280;67862;0.000;0.000;2023-10-08T00:04:00;99200.38;;;22.37;63.86
78573;BME280;67862;0.000;0.000;2023-10-08T00:06:29;99192.97;;;22.38;63.86
78573;BME280;67862;0.000;0.000;2023-10-08T00:08:55;99197.63;;;22.37;63.52
78573;BME280;67862;0.000;0.000;2023-10-08T00:11:25;99185.06;;;22.36;63.51
78573;BME280;67862;0.000;0.000;2023-10-08T00:13:50;99175.75;;;22.37;63.40
78573;BME280;67862;0.000;0.000;2023-10-08T00:16:17;99175.75;;;22.37;63.94
78573;BME280;67862;0.000;0.000;2023-10-08T00:18:44;99168.66;;;22.36;64.04
78573;BME280;67862;0.000;0.000;2023-10-08T00:21:21;99173.31;;;22.36;63.53
78573;BME280;67862;0.000;0.000;2023-10-08T00:23:53;99173.31;;;22.36;63.96
78573;BME280;67862;0.000;0.000;2023-10-08T00:26:21;99172.50;;;22.35;63.57
78573;BME280;67862;0.000;0.000;2023-10-08T00:28:55;99172.19;;;22.37;63.63
78573;BME280;67862;0.000;0.000;2023-10-08T00:31:21;99175.75;;;22.37;63.60
78573;BME280;67862;0.000;0.000;2023-10-08T00:33:49;99174.94;;;22.37;63.46
78573;BME280;67862;0.000;0.000;2023-10-08T00:36:14;99164.81;;;22.37;63.35
78573;BME280;67862;0.000;0.000;2023-10-08T00:38:47;99170.28;;;22.37;63.34
78573;BME280;67862;0.000;0.000;2023-10-08T00:41:18;99162.06;;;22.37;63.78
78573;BME280;67862;0.000;0.000;2023-10-08T00:43:47;99162.06;;;22.37;63.90
78573;BME280;67862;0.000;0.000;2023-10-08T00:46:13;99156.59;;;22.37;63.58
78573;BME280;67862;0.000;0.000;2023-10-08T00:49:10;99139.69;;;22.35;63.41
78573;BME280;67862;0.000;0.000;2023-10-08T00:51:51;99135.84;;;22.36;63.29
78573;BME280;67862;0.000;0.000;2023-10-08T00:54:48;99136.66;;;22.37;63.52
78573;BME280;67862;0.000;0.000;2023-10-08T00:57:25;99135.84;;;22.36;63.69
78573;BME280;67862;0.000;0.000;2023-10-08T00:59:51;99136.66;;;22.37;63.79
78573;BME280;67862;0.000;0.000;2023-10-08T01:05:15;99135.84;;;22.36;63.70
78573;BME280;67862;0.000;0.000;2023-10-08T01:07:45;99126.50;;;22.37;63.36
78573;BME280;67862;0.000;0.000;2023-10-08T01:10:13;99134.72;;;22.37;63.30
78573;BME280;67862;0.000;0.000;2023-10-08T01:12:44;99132.78;;;22.38;63.23
78573;BME280;67862;0.000;0.000;2023-10-08T01:15:21;99135.84;;;22.36;63.25
78573;BME280;67862;0.000;0.000;2023-10-08T01:17:52;99141.81;;;22.38;63.46
78573;BME280;67862;0.000;0.000;2023-10-08T01:20:26;99137.47;;;22.37;63.50
78573;BME280;67862;0.000;0.000;2023-10-08T01:22:58;99119.44;;;22.36;63.67
78573;BME280;67862;0.000;0.000;2023-10-08T01:25:24;99133.09;;;22.36;63.65
78573;BME280;67862;0.000;0.000;2023-10-08T01:27:55;99129.25;;;22.37;63.37
78573;BME280;67862;0.000;0.000;2023-10-08T01:30:21;99134.72;;;22.37;63.66
78573;BME280;67862;0.000;0.000;2023-10-08T01:32:47;99142.13;;;22.37;63.68
78573;BME280;67862;0.000;0.000;2023-10-08T01:35:12;99126.50;;;22.37;63.40
78573;BME280;67862;0.000;0.000;2023-10-08T01:37:50;99130.38;;;22.36;63.69
78573;BME280;67862;0.000;0.000;2023-10-08T01:40:16;99123.78;;;22.37;63.47
78573;BME280;67862;0.000;0.000;2023-10-08T01:42:42;99118.31;;;22.37;63.61
78573;BME280;67862;0.000;0.000;2023-10-08T01:45:07;99121.03;;;22.37;63.46
78573;BME280;67862;0.000;0.000;2023-10-08T01:47:35;99122.97;;;22.37;63.59
78573;BME280;67862;0.000;0.000;2023-10-08T01:50:01;99132.78;;;22.38;63.43
78573;BME280;67862;0.000;0.000;2023-10-08T01:52:31;99113.94;;;22.36;63.61
78573;BME280;67862;0.000;0.000;2023-10-08T01:54:56;99108.47;;;22.36;63.35
78573;BME280;67862;0.000;0.000;2023-10-08T01:57:22;99108.47;;;22.36;63.68
78573;BME280;67862;0.000;0.000;2023-10-08T01:59:48;99100.28;;;22.36;63.47
78573;BME280;67862;0.000;0.000;2023-10-08T02:02:13;99100.28;;;22.36;63.33
78573;BME280;67862;0.000;0.000;2023-10-08T02:04:41;99090.16;;;22.37;63.87
78573;BME280;67862;0.000;0.000;2023-10-08T02:07:06;99089.84;;;22.38;63.71
78573;BME280;67862;0.000;0.000;2023-10-08T02:09:38;99095.56;;;22.42;63.60
78573;BME280;67862;0.000;0.000;2023-10-08T02:12:03;99096.97;;;22.39;63.43
78573;BME280;67862;0.000;0.000;2023-10-08T02:14:29;99093.69;;;22.37;63.67
78573;BME280;67862;0.000;0.000;2023-10-08T02:16:57;99104.94;;;22.36;63.35
78573;BME280;67862;0.000;0.000;2023-10-08T02:19:27;99111.66;;;22.43;63.48
78573;BME280;67862;0.000;0.000;2023-10-08T02:21:53;99105.69;;;22.41;63.83
78573;BME280;67862;0.000;0.000;2023-10-08T02:24:20;99105.16;;;22.39;63.38
78573;BME280;67862;0.000;0.000;2023-10-08T02:26:47;99102.44;;;22.39;63.59
78573;BME280;67862;0.000;0.000;2023-10-08T02:29:12;99098.06;;;22.38;63.58
78573;BME280;67862;0.000;0.000;2023-10-08T02:31:39;99089.84;;;22.38;63.71
78573;BME280;67862;0.000;0.000;2023-10-08T02:34:07;99077.28;;;22.37;63.83
78573;BME280;67862;0.000;0.000;2023-10-08T02:36:34;99089.03;;;22.38;63.64
78573;BME280;67862;0.000;0.000;2023-10-08T02:39:01;99092.59;;;22.38;63.67
78573;BME280;67862;0.000;0.000;2023-10-08T02:41:31;99091.78;;;22.38;63.32
78573;BME280;67862;0.000;0.000;2023-10-08T02:43:56;99086.59;;;22.36;63.77
78573;BME280;67862;0.000;0.000;2023-10-08T02:46:24;99088.22;;;22.37;63.71
78573;BME280;67862;0.000;0.000;2023-10-08T02:48:52;99073.75;;;22.37;63.70
78573;BME280;67862;0.000;0.000;2023-10-08T02:51:17;99077.28;;;22.37;63.59
78573;BME280;67862;0.000;0.000;2023-10-08T02:53:46;99089.03;;;22.38;63.35
78573;BME280;67862;0.000;0.000;2023-10-08T02:56:12;99098.34;;;22.37;63.60
78573;BME280;67862;0.000;0.000;2023-10-08T02:58:41;99092.06;;;22.36;63.70
78573;BME280;67862;0.000;0.000;2023-10-08T03:01:09;99085.78;;;22.36;63.67
78573;BME280;67862;0.000;0.000;2023-10-08T03:03:40;99074.03;;;22.35;63.55
78573;BME280;67862;0.000;0.000;2023-10-08T03:06:07;99067.75;;;22.35;63.36
78573;BME280;67862;0.000;0.000;2023-10-08T03:08:37;99063.09;;;22.35;63.63
78573;BME280;67862;0.000;0.000;2023-10-08T03:11:03;99052.16;;;22.35;63.70
78573;BME280;67862;0.000;0.000;2023-10-08T03:13:28;99053.78;;;22.36;63.49
78573;BME280;67862;0.000;0.000;2023-10-08T03:15:54;99056.81;;;22.35;63.31
78573;BME280;67862;0.000;0.000;2023-10-08T03:18:25;99052.16;;;22.35;63.63
78573;BME280;67862;0.000;0.000;2023-10-08T03:20:51;99048.63;;;22.35;63.58
78573;BME280;67862;0.000;0.000;2023-10-08T03:23:16;99052.16;;;22.35;63.36
78573;BME280;67862;0.000;0.000;2023-10-08T03:28:22;99049.72;;;22.34;63.73
78573;BME280;67862;0.000;0.000;2023-10-08T03:30:59;99066.94;;;22.34;63.62
78573;BME280;67862;0.000;0.000;2023-10-08T03:33:34;99052.47;;;22.34;63.30
78573;BME280;67862;0.000;0.000;2023-10-08T03:36:01;99048.13;;;22.33;63.19
78573;BME280;67862;0.000;0.000;2023-10-08T03:38:34;99047.31;;;22.32;63.39
78573;BME280;67862;0.000;0.000;2023-10-08T03:41:22;99041.03;;;22.32;63.12
78573;BME280;67862;0.000;0.000;2023-10-08T03:43:53;99041.84;;;22.32;63.54
78573;BME280;67862;0.000;0.000;2023-10-08T03:46:21;99030.09;;;22.32;63.58
78573;BME280;67862;0.000;0.000;2023-10-08T03:48:49;99020.47;;;22.34;63.35
78573;BME280;67862;0.000;0.000;2023-10-08T03:51:17;99002.13;;;22.35;63.43
78573;BME280;67862;0.000;0.000;2023-10-08T03:53:45;99004.06;;;22.34;63.22
78573;BME280;67862;0.000;0.000;2023-10-08T03:56:24;98992.00;;;22.35;63.62
78573;BME280;67862;0.000;0.000;2023-10-08T03:58:50;98995.84;;;22.34;63.38
78573;BME280;67862;0.000;0.000;2023-10-08T04:01:19;98998.59;;;22.34;63.42
78573;BME280;67862;0.000;0.000;2023-10-08T04:03:45;98992.31;;;22.34;63.43
78573;BME280;67862;0.000;0.000;2023-10-08T04:06:16;98995.03;;;22.34;63.52
78573;BME280;67862;0.000;0.000;2023-10-08T04:08:41;99000.50;;;22.34;63.26
78573;BME280;67862;0.000;0.000;2023-10-08T04:11:20;99005.16;;;22.33;63.39
78573;BME280;67862;0.000;0.000;2023-10-08T04:13:57;98995.84;;;22.34;63.51
78573;BME280;67862;0.000;0.000;2023-10-08T04:16:27;98998.88;;;22.33;63.59
78573;BME280;67862;0.000;0.000;2023-10-08T04:18:53;98988.75;;;22.33;63.40
78573;BME280;67862;0.000;0.000;2023-10-08T04:21:24;98974.28;;;22.33;63.54
78573;BME280;67862;0.000;0.000;2023-10-08T04:23:53;98968.00;;;22.32;63.60
78573;BME280;67862;0.000;0.000;2023-10-08T04:26:18;98969.94;;;22.32;63.47
78573;BME280;67862;0.000;0.000;2023-10-08T04:28:52;98972.66;;;22.32;63.60
78573;BME280;67862;0.000;0.000;2023-10-08T04:31:30;98981.16;;;22.30;63.39
78573;BME280;67862;0.000;0.000;2023-10-08T04:34:14;98976.50;;;22.31;63.25
78573;BME280;67862;0.000;0.000;2023-10-08T04:36:47;98965.56;;;22.31;63.28
78573;BME280;67862;0.000;0.000;2023-10-08T04:39:22;98966.38;;;22.31;63.22
78573;BME280;67862;0.000;0.000;2023-10-08T04:41:51;98978.44;;;22.30;63.49
78573;BME280;67862;0.000;0.000;2023-10-08T04:44:23;98981.16;;;22.30;63.25
78573;BME280;67862;0.000;0.000;2023-10-08T04:46:51;98977.63;;;22.30;63.18
78573;BME280;67862;0.000;0.000;2023-10-08T04:49:19;98987.72;;;22.29;63.22
78573;BME280;67862;0.000;0.000;2023-10-08T04:52:03;98989.38;;;22.30;63.70
78573;BME280;67862;0.000;0.000;2023-10-08T04:54:39;98985.00;;;22.29;63.24
78573;BME280;67862;0.000;0.000;2023-10-08T04:57:06;98975.16;;;22.28;63.31
78573;BME280;67862;0.000;0.000;2023-10-08T04:59:32;98995.41;;;22.27;63.37
78573;BME280;67862;0.000;0.000;2023-10-08T05:02:01;98988.34;;;22.26;63.48
78573;BME280;67862;0.000;0.000;2023-10-08T05:04:47;98993.00;;;22.25;63.25
78573;BME280;67862;0.000;0.000;2023-10-08T05:07:31;98995.41;;;22.27;63.55
78573;BME280;67862;0.000;0.000;2023-10-08T05:10:15;99000.88;;;22.27;63.30
78573;BME280;67862;0.000;0.000;2023-10-08T05:13:03;98997.34;;;22.26;63.52
78573;BME280;67862;0.000;0.000;2023-10-08T05:15:28;98987.53;;;22.25;63.60
78573;BME280;67862;0.000;0.000;2023-10-08T05:18:12;98989.44;;;22.25;63.53
78573;BME280;67862;0.000;0.000;2023-10-08T05:20:37;98993.00;;;22.25;63.24
78573;BME280;67862;0.000;0.000;2023-10-08T05:23:12;98985.09;;;22.24;63.50
78573;BME280;67862;0.000;0.000;2023-10-08T05:25:53;98987.22;;;22.27;63.26
78573;BME280;67862;0.000;0.000;2023-10-08T05:28:30;99000.09;;;22.26;63.52
78573;BME280;67862;0.000;0.000;2023-10-08T05:31:06;99001.19;;;22.25;63.21
78573;BME280;67862;0.000;0.000;2023-10-08T05:33:50;98998.75;;;22.24;63.49
78573;BME280;67862;0.000;0.000;2023-10-08T05:36:34;98990.56;;;22.24;63.52
78573;BME280;67862;0.000;0.000;2023-10-08T05:39:18;98985.41;;;22.22;63.35
78573;BME280;67862;0.000;0.000;2023-10-08T05:41:49;98984.59;;;22.22;63.37
78573;BME280;67862;0.000;0.000;2023-10-08T05:44:20;98987.81;;;22.24;63.23
78573;BME280;67862;0.000;0.000;2023-10-08T05:46:45;98974.16;;;22.24;62.89
78573;BME280;67862;0.000;0.000;2023-10-08T05:49:43;98978.00;;;22.23;62.79
78573;BME280;67862;0.000;0.000;2023-10-08T05:52:20;98976.09;;;22.23;62.85
78573;BME280;67862;0.000;0.000;2023-10-08T05:55:02;98983.97;;;22.25;63.17
78573;BME280;67862;0.000;0.000;2023-10-08T05:57:46;98981.25;;;22.25;63.07
78573;BME280;67862;0.000;0.000;2023-10-08T06:00:17;98993.00;;;22.25;63.18
78573;BME280;67862;0.000;0.000;2023-10-08T06:02:54;98998.47;;;22.25;62.84
78573;BME280;67862;0.000;0.000;2023-10-08T06:05:34;98996.84;;;22.24;62.51
78573;BME280;67862;0.000;0.000;2023-10-08T06:08:08;98998.25;;;22.22;62.46
78573;BME280;67862;0.000;0.000;2023-10-08T06:10:38;98990.13;;;22.17;60.94
78573;BME280;67862;0.000;0.000;2023-10-08T06:13:07;99005.28;;;22.09;60.66
78573;BME280;67862;0.000;0.000;2023-10-08T06:15:55;99015.25;;;22.00;58.14
78573;BME280;67862;0.000;0.000;2023-10-08T06:21:00;99030.47;;;22.06;59.33
78573;BME280;67862;0.000;0.000;2023-10-08T06:23:32;99035.09;;;22.11;60.01
78573;BME280;67862;0.000;0.000;2023-10-08T06:26:00;99036.72;;;22.12;59.68
78573;BME280;67862;0.000;0.000;2023-10-08T06:28:31;99042.19;;;22.12;60.31
78573;BME280;67862;0.000;0.000;2023-10-08T06:31:00;99046.03;;;22.11;60.33
78573;BME280;67862;0.000;0.000;2023-10-08T06:33:26;99056.16;;;22.10;60.59
78573;BME280;67862;0.000;0.000;2023-10-08T06:35:57;99046.84;;;22.11;60.07
78573;BME280;67862;0.000;0.000;2023-10-08T06:38:42;99050.06;;;22.13;60.33
78573;BME280;67862;0.000;0.000;2023-10-08T06:41:09;99050.88;;;22.14;60.67
78573;BME280;67862;0.000;0.000;2023-10-08T06:43:38;99045.41;;;22.14;60.30
78573;BME280;67862;0.000;0.000;2023-10-08T06:46:04;99048.16;;;22.14;60.82
78573;BME280;67862;0.000;0.000;2023-10-08T06:48:32;99037.22;;;22.14;60.86
78573;BME280;67862;0.000;0.000;2023-10-08T06:51:00;99052.00;;;22.13;60.84
78573;BME280;67862;0.000;0.000;2023-10-08T06:53:38;99048.16;;;22.14;61.16
78573;BME280;67862;0.000;0.000;2023-10-08T06:56:04;99043.81;;;22.13;61.03
78573;BME280;67862;0.000;0.000;2023-10-08T06:58:30;99041.88;;;22.13;61.05
78573;BME280;67862;0.000;0.000;2023-10-08T07:00:59;99047.34;;;22.13;60.94
78573;BME280;67862;0.000;0.000;2023-10-08T07:03:29;99047.03;;;22.15;61.10
78573;BME280;67862;0.000;0.000;2023-10-08T07:06:01;99046.22;;;22.14;61.11
78573;BME280;67862;0.000;0.000;2023-10-08T07:08:29;99044.31;;;22.15;61.44
78573;BME280;67862;0.000;0.000;2023-10-08T07:10:57;99042.38;;;22.15;60.98
78573;BME280;67862;0.000;0.000;2023-10-08T07:13:24;99049.78;;;22.15;61.16
78573;BME280;67862;0.000;0.000;2023-10-08T07:15:49;99047.03;;;22.15;60.94
78573;BME280;67862;0.000;0.000;2023-10-08T07:18:15;99041.56;;;22.15;61.23
78573;BME280;67862;0.000;0.000;2023-10-08T07:20:47;99027.09;;;22.14;61.00
78573;BME280;67862;0.000;0.000;2023-10-08T07:23:22;99023.25;;;22.15;61.31
78573;BME280;67862;0.000;0.000;2023-10-08T07:25:52;99022.44;;;22.15;60.96
78573;BME280;67862;0.000;0.000;2023-10-08T07:28:18;99020.50;;;22.15;61.27
78573;BME280;67862;0.000;0.000;2023-10-08T07:30:45;99009.56;;;22.15;61.51
78573;BME280;67862;0.000;0.000;2023-10-08T07:33:10;99013.13;;;22.16;61.16
78573;BME280;67862;0.000;0.000;2023-10-08T07:35:43;99015.03;;;22.15;61.34
78573;BME280;67862;0.000;0.000;2023-10-08T07:38:16;99026.78;;;22.16;61.08
78573;BME280;67862;0.000;0.000;2023-10-08T07:40:42;99035.81;;;22.16;61.00
78573;BME280;67862;0.000;0.000;2023-10-08T07:43:10;99044.00;;;22.16;61.28
78573;BME280;67862;0.000;0.000;2023-10-08T07:45:35;99036.63;;;22.17;61.24
78573;BME280;67862;0.000;0.000;2023-10-08T07:48:01;99038.53;;;22.16;61.25
78573;BME280;67862;0.000;0.000;2023-10-08T07:50:26;99037.41;;;22.17;61.33
78573;BME280;67862;0.000;0.000;2023-10-08T07:52:54;99040.97;;;22.18;61.12
78573;BME280;67862;0.000;0.000;2023-10-08T07:55:21;99039.34;;;22.17;61.30
78573;BME280;67862;0.000;0.000;2023-10-08T07:57:47;99036.63;;;22.17;61.45
78573;BME280;67862;0.000;0.000;2023-10-08T08:00:13;99051.91;;;22.18;61.22
78573;BME280;67862;0.000;0.000;2023-10-08T08:02:56;99047.25;;;22.18;61.20
78573;BME280;67862;0.000;0.000;2023-10-08T08:05:21;99050.28;;;22.17;61.17
78573;BME280;67862;0.000;0.000;2023-10-08T08:07:47;99039.03;;;22.18;61.34
78573;BME280;67862;0.000;0.000;2023-10-08T08:10:15;99035.50;;;22.18;61.42
78573;BME280;67862;0.000;0.000;2023-10-08T08:12:40;99041.78;;;22.18;61.16
78573;BME280;67862;0.000;0.000;2023-10-08T08:15:07;99035.50;;;22.18;61.32
78573;BME280;67862;0.000;0.000;2023-10-08T08:17:45;99039.84;;;22.19;61.68
78573;BME280;67862;0.000;0.000;2023-10-08T08:20:13;99042.59;;;22.19;61.60
78573;BME280;67862;0.000;0.000;2023-10-08T08:22:47;99060.91;;;22.18;61.57
78573;BME280;67862;0.000;0.000;2023-10-08T08:25:16;99070.75;;;22.19;61.91
78573;BME280;67862;0.000;0.000;2023-10-08T08:27:51;99076.22;;;22.19;61.50
78573;BME280;67862;0.000;0.000;2023-10-08T08:30:18;99092.59;;;22.19;61.48
78573;BME280;67862;0.000;0.000;2023-10-08T08:32:45;99086.34;;;22.19;61.59
78573;BME280;67862;0.000;0.000;2023-10-08T08:35:13;99085.25;;;22.20;61.59
78573;BME280;67862;0.000;0.000;2023-10-08T08:37:42;99095.34;;;22.19;61.67
78573;BME280;67862;0.000;0.000;2023-10-08T08:40:07;99084.41;;;22.19;61.57
78573;BME280;67862;0.000;0.000;2023-10-08T08:42:45;99085.25;;;22.20;61.64
78573;BME280;67862;0.000;0.000;2023-10-08T08:45:21;99084.13;;;22.21;61.68
78573;BME280;67862;0.000;0.000;2023-10-08T08:47:47;99077.84;;;22.20;61.62
78573;BME280;67862;0.000;0.000;2023-10-08T09:23:59;99138.22;;;22.24;62.74
78573;BME280;67862;0.000;0.000;2023-10-08T09:26:25;99155.44;;;22.24;62.26
78573;BME280;67862;0.000;0.000;2023-10-08T09:28:54;99158.16;;;22.24;62.43
78573;BME280;67862;0.000;0.000;2023-10-08T09:31:22;99167.19;;;22.25;62.58
78573;BME280;67862;0.000;0.000;2023-10-08T09:33:55;99168.31;;;22.24;62.52
78573;BME280;67862;0.000;0.000;2023-10-08T09:36:20;99169.09;;;22.24;62.12
78573;BME280;67862;0.000;0.000;2023-10-08T09:39:02;99171.84;;;22.24;62.13
78573;BME280;67862;0.000;0.000;2023-10-08T09:41:29;99170.22;;;22.23;62.07
78573;BME280;67862;0.000;0.000;2023-10-08T09:43:56;99169.41;;;22.23;61.97
78573;BME280;67862;0.000;0.000;2023-10-08T09:46:23;99179.84;;;22.21;61.64
78573;BME280;67862;0.000;0.000;2023-10-08T09:48:51;99194.63;;;22.20;61.64
78573;BME280;67862;0.000;0.000;2023-10-08T09:51:20;99195.69;;;22.19;61.64
78573;BME280;67862;0.000;0.000;2023-10-08T09:53:52;99188.59;;;22.18;61.01
78573;BME280;67862;0.000;0.000;2023-10-08T09:56:19;99197.13;;;22.16;61.42
78573;BME280;67862;0.000;0.000;2023-10-08T09:58:45;99208.84;;;22.17;61.39
78573;BME280;67862;0.000;0.000;2023-10-08T10:01:11;99210.78;;;22.16;60.92
78573;BME280;67862;0.000;0.000;2023-10-08T10:03:36;99221.72;;;22.16;61.19
78573;BME280;67862;0.000;0.000;2023-10-08T10:06:02;99222.84;;;22.15;60.86
78573;BME280;67862;0.000;0.000;2023-10-08T10:08:28;99231.84;;;22.16;60.87
78573;BME280;67862;0.000;0.000;2023-10-08T10:11:00;99248.25;;;22.16;60.81
78573;BME280;67862;0.000;0.000;2023-10-08T10:13:33;99253.72;;;22.16;60.50
78573;BME280;67862;0.000;0.000;2023-10-08T10:15:59;99255.63;;;22.15;61.00
78573;BME280;67862;0.000;0.000;2023-10-08T10:23:47;99267.59;;;22.19;61.15
78573;BME280;67862;0.000;0.000;2023-10-08T10:31:34;99249.56;;;22.18;61.08
78573;BME280;67862;0.000;0.000;2023-10-08T10:34:04;99265.72;;;22.20;61.00
78573;BME280;67862;0.000;0.000;2023-10-08T10:36:29;99261.06;;;22.20;61.28
78573;BME280;67862;0.000;0.000;2023-10-08T10:38:56;99270.06;;;22.21;61.09
78573;BME280;67862;0.000;0.000;2023-10-08T10:41:22;99260.75;;;22.22;60.99
78573;BME280;67862;0.000;0.000;2023-10-08T10:43:48;99270.59;;;22.23;61.33
78573;BME280;67862;0.000;0.000;2023-10-08T10:46:18;99272.22;;;22.24;61.36
78573;BME280;67862;0.000;0.000;2023-10-08T10:48:56;99266.75;;;22.24;61.38
78573;BME280;67862;0.000;0.000;2023-10-08T10:51:40;99272.72;;;22.26;61.71
78573;BME280;67862;0.000;0.000;2023-10-08T10:54:06;99257.13;;;22.26;61.83
78573;BME280;67862;0.000;0.000;2023-10-08T10:56:35;99257.94;;;22.27;61.85
78573;BME280;67862;0.000;0.000;2023-10-08T10:59:10;99260.38;;;22.28;61.73
78573;BME280;67862;0.000;0.000;2023-10-08T11:01:45;99258.75;;;22.27;61.73
78573;BME280;67862;0.000;0.000;2023-10-08T11:04:12;99270.50;;;22.28;61.52
78573;BME280;67862;0.000;0.000;2023-10-08T11:06:43;99268.88;;;22.27;61.09
78573;BME280;67862;0.000;0.000;2023-10-08T11:09:12;99258.75;;;22.27;61.41
78573;BME280;67862;0.000;0.000;2023-10-08T11:11:44;99263.41;;;22.27;61.57
78573;BME280;67862;0.000;0.000;2023-10-08T11:14:12;99273.25;;;22.28;61.47
78573;BME280;67862;0.000;0.000;2023-10-08T11:16:44;99275.97;;;22.28;61.51
78573;BME280;67862;0.000;0.000;2023-10-08T11:19:10;99273.25;;;22.28;61.25
78573;BME280;67862;0.000;0.000;2023-10-08T11:21:51;99273.25;;;22.28;61.13
78573;BME280;67862;0.000;0.000;2023-10-08T11:27:07;99282.25;;;22.28;61.69
78573;BME280;67862;0.000;0.000;2023-10-08T11:29:51;99291.25;;;22.29;61.73
78573;BME280;67862;0.000;0.000;2023-10-08T11:32:22;99294.00;;;22.29;61.76
78573;BME280;67862;0.000;0.000;2023-10-08T11:34:54;99295.13;;;22.28;61.63
78573;BME280;67862;0.000;0.000;2023-10-08T11:37:29;99295.13;;;22.28;61.71
78573;BME280;67862;0.000;0.000;2023-10-08T11:39:55;99300.59;;;22.28;61.45
78573;BME280;67862;0.000;0.000;2023-10-08T11:42:24;99303.31;;;22.28;61.60
78573;BME280;67862;0.000;0.000;2023-10-08T11:44:58;99311.53;;;22.28;62.12
78573;BME280;67862;0.000;0.000;2023-10-08T11:47:42;99303.63;;;22.26;61.98
78573;BME280;67862;0.000;0.000;2023-10-08T11:50:10;99299.25;;;22.25;61.68
78573;BME280;67862;0.000;0.000;2023-10-08T11:52:53;99292.97;;;22.25;61.45
78573;BME280;67862;0.000;0.000;2023-10-08T11:55:19;99298.44;;;22.25;61.78
78573;BME280;67862;0.000;0.000;2023-10-08T11:57:45;99294.59;;;22.26;61.75
78573;BME280;67862;0.000;0.000;2023-10-08T12:00:14;99313.75;;;22.26;61.28
78573;BME280;67862;0.000;0.000;2023-10-08T12:02:47;99328.53;;;22.25;61.75
78573;BME280;67862;0.000;0.000;2023-10-08T12:05:13;99320.31;;;22.25;61.88
78573;BME280;67862;0.000;0.000;2023-10-08T12:07:47;99329.63;;;22.24;61.56
78573;BME280;67862;0.000;0.000;2023-10-08T12:10:12;99334.59;;;22.22;60.36
78573;BME280;67862;0.000;0.000;2023-10-08T12:12:38;99335.69;;;22.21;60.37
78573;BME280;67862;0.000;0.000;2023-10-08T12:15:03;99353.22;;;22.20;60.33
78573;BME280;67862;0.000;0.000;2023-10-08T12:17:29;99355.09;;;22.19;60.77
78573;BME280;67862;0.000;0.000;2023-10-08T12:20:07;99354.84;;;22.21;60.94
78573;BME280;67862;0.000;0.000;2023-10-08T12:22:51;99373.97;;;22.21;60.80
78573;BME280;67862;0.000;0.000;2023-10-08T12:25:17;99368.50;;;22.21;61.16
78573;BME280;67862;0.000;0.000;2023-10-08T12:27:42;99359.50;;;22.20;61.18
78573;BME280;67862;0.000;0.000;2023-10-08T12:30:08;99355.94;;;22.20;61.28
78573;BME280;67862;0.000;0.000;2023-10-08T12:32:36;99372.34;;;22.20;61.25
78573;BME280;67862;0.000;0.000;2023-10-08T12:35:05;99358.69;;;22.20;61.01
78573;BME280;67862;0.000;0.000;2023-10-08T12:37:41;99370.69;;;22.19;61.00
78573;BME280;67862;0.000;0.000;2023-10-08T12:40:09;99369.06;;;22.18;61.14
78573;BME280;67862;0.000;0.000;2023-10-08T12:42:48;99369.38;;;22.16;61.38
78573;BME280;67862;0.000;0.000;2023-10-08T12:45:13;99389.31;;;22.17;61.24
78573;BME280;67862;0.000;0.000;2023-10-08T12:47:38;99392.06;;;22.17;61.02
78573;BME280;67862;0.000;0.000;2023-10-08T12:50:04;99382.22;;;22.16;61.27
78573;BME280;67862;0.000;0.000;2023-10-08T12:52:33;99382.22;;;22.16;61.30
78573;BME280;67862;0.000;0.000;2023-10-08T12:55:00;99390.44;;;22.16;61.30
78573;BME280;67862;0.000;0.000;2023-10-08T12:57:29;99386.06;;;22.15;61.11
78573;BME280;67862;0.000;0.000;2023-10-08T12:59:58;99389.09;;;22.13;61.27
78573;BME280;67862;0.000;0.000;2023-10-08T13:02:24;99403.56;;;22.14;61.31
78573;BME280;67862;0.000;0.000;2023-10-08T13:04:56;99406.31;;;22.14;61.38
78573;BME280;67862;0.000;0.000;2023-10-08T13:07:23;99408.22;;;22.13;61.32
78573;BME280;67862;0.000;0.000;2023-10-08T13:09:51;99410.16;;;22.13;61.20
78573;BME280;67862;0.000;0.000;2023-10-08T13:12:17;99419.47;;;22.12;61.27
78573;BME280;67862;0.000;0.000;2023-10-08T13:14:42;99406.59;;;22.12;60.99
78573;BME280;67862;0.000;0.000;2023-10-08T13:17:10;99410.44;;;22.11;60.91
78573;BME280;67862;0.000;0.000;2023-10-08T13:19:36;99426.84;;;22.11;61.18
78573;BME280;67862;0.000;0.000;2023-10-08T13:22:01;99431.50;;;22.11;61.01
78573;BME280;67862;0.000;0.000;2023-10-08T13:24:32;99444.38;;;22.10;60.79
78573;BME280;67862;0.000;0.000;2023-10-08T13:26:57;99442.44;;;22.11;61.12
78573;BME280;67862;0.000;0.000;2023-10-08T13:29:23;99435.31;;;22.10;61.08
78573;BME280;67862;0.000;0.000;2023-10-08T13:31:52;99440.78;;;22.10;60.90
78573;BME280;67862;0.000;0.000;2023-10-08T13:34:19;99447.34;;;22.09;61.11
78573;BME280;67862;0.000;0.000;2023-10-08T13:36:46;99441.91;;;22.09;61.06
78573;BME280;67862;0.000;0.000;2023-10-08T13:39:14;99449.28;;;22.08;60.71
78573;BME280;67862;0.000;0.000;2023-10-08T13:41:43;99451.19;;;22.08;61.04
78573;BME280;67862;0.000;0.000;2023-10-08T13:44:13;99451.19;;;22.08;61.02
78573;BME280;67862;0.000;0.000;2023-10-08T13:46:39;99469.22;;;22.09;60.79
78573;BME280;67862;0.000;0.000;2023-10-08T13:49:08;99457.78;;;22.07;60.82
78573;BME280;67862;0.000;0.000;2023-10-08T13:51:35;99463.25;;;22.07;60.70
78573;BME280;67862;0.000;0.000;2023-10-08T13:54:03;99476.91;;;22.07;60.86
78573;BME280;67862;0.000;0.000;2023-10-08T13:56:32;99476.06;;;22.06;60.95
78573;BME280;67862;0.000;0.000;2023-10-08T13:58:58;99471.72;;;22.05;60.73
78573;BME280;67862;0.000;0.000;2023-10-08T14:01:40;99492.75;;;22.05;60.85
78573;BME280;67862;0.000;0.000;2023-10-08T14:04:09;99498.22;;;22.05;61.05
78573;BME280;67862;0.000;0.000;2023-10-08T14:06:35;99488.09;;;22.05;60.85
78573;BME280;67862;0.000;0.000;2023-10-08T14:09:02;99490.03;;;22.05;60.91
78573;BME280;67862;0.000;0.000;2023-10-08T14:11:32;99486.47;;;22.04;60.72
78573;BME280;67862;0.000;0.000;2023-10-08T14:13:59;99483.75;;;22.04;60.74
78573;BME280;67862;0.000;0.000;2023-10-08T14:16:27;99493.88;;;22.04;60.88
78573;BME280;67862;0.000;0.000;2023-10-08T14:18:57;99494.97;;;22.03;61.00
78573;BME280;67862;0.000;0.000;2023-10-08T14:21:25;99497.72;;;22.03;61.10